createdAt,value
2023-01-23T00:01:20.218Z,18.90
2023-01-23T00:03:47.372Z,19.53
2023-01-23T00:06:16.046Z,20.13
2023-01-23T00:08:43.864Z,21.93
2023-01-23T00:11:30.541Z,20.07
2023-01-23T00:13:58.744Z,21.03
2023-01-23T00:16:28.268Z,18.50
2023-01-23T00:18:55.532Z,18.57
2023-01-23T00:21:24.751Z,19.77
2023-01-23T00:23:57.073Z,20.17
2023-01-23T00:26:26.655Z,20.90
2023-01-23T00:28:54.583Z,21.03
2023-01-23T00:31:27.215Z,18.80
2023-01-23T00:33:59.818Z,20.20
2023-01-23T00:36:38.580Z,20.83
2023-01-23T00:39:09.365Z,21.10
2023-01-23T00:41:36.167Z,20.13
2023-01-23T00:44:03.168Z,20.17
2023-01-23T00:46:30.635Z,21.03
2023-01-23T00:48:57.585Z,20.13
2023-01-23T00:51:24.543Z,20.13
2023-01-23T00:53:52.120Z,19.63
2023-01-23T00:56:19.609Z,19.73
2023-01-23T00:58:46.397Z,21.87
2023-01-23T01:01:14.891Z,20.63
2023-01-23T01:03:42.555Z,20.13
2023-01-23T01:06:10.002Z,20.43
2023-01-23T01:08:37.138Z,17.80
2023-01-23T01:11:04.257Z,19.23
2023-01-23T01:13:31.378Z,18.90
2023-01-23T01:16:01.675Z,18.23
2023-01-23T01:18:29.759Z,20.80
2023-01-23T01:20:58.264Z,17.37
2023-01-23T01:23:25.500Z,20.00
2023-01-23T01:25:52.341Z,18.40
2023-01-23T01:28:19.098Z,17.30
2023-01-23T01:30:45.841Z,18.43
2023-01-23T01:33:12.990Z,18.07
2023-01-23T01:35:41.326Z,19.73
2023-01-23T01:38:08.933Z,19.00
2023-01-23T01:40:36.911Z,18.17
2023-01-23T01:43:09.675Z,19.90
2023-01-23T01:46:06.491Z,19.77
2023-01-23T01:48:51.268Z,17.17
2023-01-23T01:51:32.210Z,18.87
2023-01-23T01:54:07.646Z,19.13
2023-01-23T01:56:39.908Z,18.10
2023-01-23T01:59:08.216Z,18.00
2023-01-23T02:01:35.868Z,17.23
2023-01-23T02:04:02.772Z,19.23
2023-01-23T02:06:29.543Z,19.03
2023-01-23T02:09:10.520Z,18.43
2023-01-23T02:11:37.527Z,17.17
2023-01-23T02:14:04.259Z,17.97
2023-01-23T02:16:40.195Z,17.87
2023-01-23T02:19:31.934Z,18.00
2023-01-23T02:22:24.482Z,18.13
2023-01-23T02:25:23.160Z,16.80
2023-01-23T02:27:49.915Z,16.60
2023-01-23T02:30:18.938Z,18.83
2023-01-23T02:32:45.852Z,17.00
2023-01-23T02:35:21.465Z,17.37
2023-01-23T02:37:52.056Z,17.80
2023-01-23T02:40:21.324Z,16.20
2023-01-23T02:42:50.709Z,17.27
2023-01-23T02:45:17.497Z,16.30
2023-01-23T02:47:44.175Z,16.47
2023-01-23T02:50:11.241Z,18.70
2023-01-23T02:52:37.907Z,16.87
2023-01-23T02:55:05.008Z,17.00
2023-01-23T02:57:32.143Z,19.67
2023-01-23T03:00:18.034Z,16.37
2023-01-23T03:02:47.071Z,17.93
2023-01-23T03:05:13.957Z,15.63
2023-01-23T03:07:40.949Z,15.30
2023-01-23T03:10:07.973Z,17.70
2023-01-23T03:12:35.231Z,16.50
2023-01-23T03:15:02.571Z,17.20
2023-01-23T03:17:29.635Z,15.73
2023-01-23T03:19:57.660Z,17.60
2023-01-23T03:22:24.920Z,17.83
2023-01-23T03:24:52.011Z,17.80
2023-01-23T03:27:19.104Z,15.23
2023-01-23T03:30:04.328Z,16.87
2023-01-23T03:32:31.403Z,16.40
2023-01-23T03:34:59.655Z,18.10
2023-01-23T03:37:26.474Z,16.70
2023-01-23T03:40:25.350Z,16.53
2023-01-23T03:42:51.994Z,16.90
2023-01-23T03:45:18.655Z,16.93
2023-01-23T03:47:45.318Z,17.67
2023-01-23T03:50:12.011Z,16.20
2023-01-23T03:52:38.877Z,16.90
2023-01-23T03:55:06.201Z,16.67
2023-01-23T03:57:32.879Z,18.03
2023-01-23T03:59:59.701Z,16.70
2023-01-23T04:02:26.812Z,16.87
2023-01-23T04:04:53.833Z,16.00
2023-01-23T04:07:20.478Z,17.33
2023-01-23T04:09:47.809Z,16.60
2023-01-23T04:12:14.825Z,18.27
2023-01-23T04:14:41.911Z,16.80
2023-01-23T04:17:09.007Z,16.60
2023-01-23T04:19:36.282Z,17.00
2023-01-23T04:22:04.850Z,15.17
2023-01-23T04:24:31.552Z,15.10
2023-01-23T04:26:58.224Z,15.00
2023-01-23T04:29:25.488Z,16.57
2023-01-23T04:31:52.322Z,15.40
2023-01-23T04:34:19.237Z,15.13
2023-01-23T04:36:46.169Z,15.23
2023-01-23T04:39:12.812Z,18.03
2023-01-23T04:41:39.517Z,15.57
2023-01-23T04:44:21.149Z,15.60
2023-01-23T04:46:55.493Z,16.77
2023-01-23T04:49:23.410Z,17.17
2023-01-23T04:51:50.778Z,16.17
2023-01-23T04:54:18.431Z,15.53
2023-01-23T04:56:45.231Z,16.30
2023-01-23T04:59:12.754Z,15.50
2023-01-23T05:01:39.673Z,16.97
2023-01-23T05:04:06.502Z,14.23
2023-01-23T05:06:34.304Z,14.57
2023-01-23T05:09:00.962Z,15.40
2023-01-23T05:11:27.662Z,16.30
2023-01-23T05:13:55.322Z,14.67
2023-01-23T05:16:21.939Z,14.93
2023-01-23T05:18:48.562Z,14.67
2023-01-23T05:24:03.264Z,15.20
2023-01-23T05:26:29.933Z,15.47
2023-01-23T05:28:56.898Z,16.63
2023-01-23T05:31:24.129Z,15.77
2023-01-23T05:33:50.871Z,15.77
2023-01-23T05:36:18.635Z,14.73
2023-01-23T05:38:45.552Z,16.80
2023-01-23T05:41:12.226Z,15.73
2023-01-23T05:43:39.158Z,16.20
2023-01-23T05:46:05.984Z,16.83
2023-01-23T05:48:33.251Z,16.03
2023-01-23T05:51:02.875Z,17.10
2023-01-23T05:53:29.745Z,16.83
2023-01-23T05:55:56.367Z,15.73
2023-01-23T05:58:23.048Z,13.97
2023-01-23T06:00:49.715Z,15.97
2023-01-23T06:03:16.515Z,14.57
2023-01-23T06:05:43.365Z,16.00
2023-01-23T06:08:11.097Z,15.50
2023-01-23T06:10:38.642Z,27.10
2023-01-23T06:13:06.073Z,18.97
2023-01-23T06:15:32.848Z,16.93
2023-01-23T06:17:59.599Z,28.40
2023-01-23T06:20:26.738Z,19.33
2023-01-23T06:22:53.428Z,22.60
2023-01-23T06:25:21.890Z,21.33
2023-01-23T06:27:48.622Z,15.60
2023-01-23T06:30:16.409Z,18.00
2023-01-23T06:32:43.382Z,16.97
2023-01-23T06:35:10.361Z,15.83
2023-01-23T06:37:38.269Z,17.10
2023-01-23T06:40:05.525Z,15.10
2023-01-23T06:42:32.208Z,16.03
2023-01-23T06:44:58.881Z,16.43
2023-01-23T06:47:25.608Z,17.73
2023-01-23T06:49:52.237Z,14.07
2023-01-23T06:52:19.152Z,14.90
2023-01-23T06:54:46.149Z,16.90
2023-01-23T06:57:13.311Z,22.53
2023-01-23T06:59:41.230Z,17.73
2023-01-23T07:02:10.517Z,16.30
2023-01-23T07:04:37.602Z,19.07
2023-01-23T07:07:04.620Z,17.03
2023-01-23T07:09:31.604Z,17.87
2023-01-23T07:11:58.389Z,16.87
2023-01-23T07:14:27.058Z,19.30
2023-01-23T07:16:56.479Z,18.07
2023-01-23T07:19:23.244Z,14.63
2023-01-23T07:21:50.639Z,16.10
2023-01-23T07:24:17.552Z,15.83
2023-01-23T07:26:44.378Z,15.90
2023-01-23T07:29:11.161Z,16.83
2023-01-23T07:31:38.775Z,16.27
2023-01-23T07:34:05.794Z,15.73
2023-01-23T07:36:32.588Z,16.13
2023-01-23T07:38:59.628Z,14.00
2023-01-23T07:41:26.696Z,14.87
2023-01-23T07:43:53.983Z,14.90
2023-01-23T07:46:20.944Z,15.70
2023-01-23T07:48:47.798Z,16.90
2023-01-23T07:51:15.396Z,14.37
2023-01-23T07:53:42.641Z,14.33
2023-01-23T07:56:09.518Z,15.07
2023-01-23T07:58:36.395Z,16.70
2023-01-23T08:01:11.296Z,16.23
2023-01-23T08:03:38.970Z,14.90
2023-01-23T08:06:06.393Z,17.17
2023-01-23T08:08:33.293Z,17.07
2023-01-23T08:11:04.731Z,14.70
2023-01-23T08:13:31.474Z,15.27
2023-01-23T08:15:58.978Z,14.80
2023-01-23T08:18:26.613Z,14.93
2023-01-23T08:20:58.380Z,16.50
2023-01-23T08:23:30.811Z,15.00
2023-01-23T08:26:00.333Z,13.97
2023-01-23T08:28:27.448Z,14.50
2023-01-23T08:30:54.704Z,14.00
2023-01-23T08:33:22.294Z,13.03
2023-01-23T08:35:54.096Z,12.70
2023-01-23T08:38:21.589Z,13.90
2023-01-23T08:40:50.430Z,14.57
2023-01-23T08:43:19.262Z,14.33
2023-01-23T08:45:50.462Z,15.30
2023-01-23T08:48:17.975Z,13.87
2023-01-23T08:50:45.420Z,15.33
2023-01-23T08:53:13.130Z,13.87
2023-01-23T08:55:40.701Z,13.50
2023-01-23T08:58:13.405Z,14.37
2023-01-23T09:00:40.558Z,13.07
2023-01-23T09:03:09.861Z,13.77
2023-01-23T09:05:37.808Z,14.17
2023-01-23T09:08:05.087Z,13.77
2023-01-23T09:10:32.317Z,14.10
2023-01-23T09:12:59.133Z,12.57
2023-01-23T09:15:25.929Z,15.63
2023-01-23T09:17:52.726Z,15.20
2023-01-23T09:20:20.363Z,14.20
2023-01-23T09:22:47.303Z,13.63
2023-01-23T09:25:14.758Z,13.80
2023-01-23T09:27:41.509Z,14.93
2023-01-23T09:30:08.921Z,14.03
2023-01-23T09:32:37.080Z,14.50
2023-01-23T09:35:04.971Z,15.17
2023-01-23T09:37:51.328Z,16.00
2023-01-23T09:40:22.779Z,13.27
2023-01-23T09:42:51.577Z,13.30
2023-01-23T09:45:23.194Z,13.40
2023-01-23T09:47:57.144Z,14.10
2023-01-23T09:50:37.919Z,13.17
2023-01-23T09:53:19.532Z,13.40
2023-01-23T09:56:04.266Z,14.30
2023-01-23T09:58:37.458Z,13.70
2023-01-23T10:01:04.378Z,14.60
2023-01-23T10:03:32.534Z,13.93
2023-01-23T10:06:33.410Z,13.47
2023-01-23T10:09:08.978Z,14.57
2023-01-23T10:12:10.892Z,13.53
2023-01-23T10:14:58.405Z,14.33
2023-01-23T10:17:52.399Z,12.23
2023-01-23T10:20:43.489Z,12.27
2023-01-23T10:23:33.615Z,12.57
2023-01-23T10:26:03.323Z,13.50
2023-01-23T10:28:39.378Z,13.57
2023-01-23T10:31:40.155Z,12.37
2023-01-23T10:34:10.023Z,13.60
2023-01-23T10:36:47.892Z,14.33
2023-01-23T10:39:22.941Z,11.97
2023-01-23T10:41:54.298Z,13.23
2023-01-23T10:44:24.758Z,13.27
2023-01-23T10:46:56.217Z,14.20
2023-01-23T10:49:35.584Z,14.87
2023-01-23T10:52:02.834Z,14.47
2023-01-23T10:54:32.159Z,13.40
2023-01-23T10:57:04.705Z,14.63
2023-01-23T10:59:57.268Z,13.67
2023-01-23T11:02:43.966Z,13.93
2023-01-23T11:05:52.612Z,13.33
2023-01-23T11:08:30.541Z,13.93
2023-01-23T11:11:15.701Z,11.43
2023-01-23T11:13:47.747Z,11.00
2023-01-23T11:16:17.556Z,10.10
2023-01-23T11:18:55.185Z,8.60
2023-01-23T11:21:48.593Z,8.37
2023-01-23T11:24:40.463Z,8.43
2023-01-23T11:27:15.107Z,9.30
2023-01-23T11:30:08.427Z,8.77
2023-01-23T11:33:07.949Z,8.00
2023-01-23T11:35:49.441Z,11.17
2023-01-23T11:38:27.307Z,9.73
2023-01-23T11:40:54.374Z,10.80
2023-01-23T11:43:21.344Z,10.70
2023-01-23T11:45:56.179Z,11.10
2023-01-23T11:48:37.068Z,11.30
2023-01-23T11:51:15.586Z,11.20
2023-01-23T11:54:01.417Z,11.40
2023-01-23T11:56:59.916Z,11.83
2023-01-23T11:59:35.774Z,11.30
2023-01-23T12:02:34.203Z,10.87
2023-01-23T12:05:24.861Z,11.87
2023-01-23T12:08:07.497Z,11.87
2023-01-23T12:10:52.158Z,11.30
2023-01-23T12:13:37.205Z,12.27
2023-01-23T12:16:06.988Z,13.50
2023-01-23T12:19:01.742Z,12.10
2023-01-23T12:21:49.144Z,12.90
2023-01-23T12:24:24.977Z,12.10
2023-01-23T12:27:03.803Z,12.00
2023-01-23T12:29:50.636Z,12.50
2023-01-23T12:32:48.098Z,12.80
2023-01-23T12:35:14.923Z,12.10
2023-01-23T12:38:11.694Z,11.63
2023-01-23T12:41:10.931Z,12.60
2023-01-23T12:43:40.525Z,11.47
2023-01-23T12:46:16.034Z,11.00
2023-01-23T12:48:53.971Z,10.80
2023-01-23T12:51:24.649Z,12.50
2023-01-23T12:53:57.466Z,11.10
2023-01-23T12:56:31.226Z,11.37
2023-01-23T12:59:05.635Z,11.93
2023-01-23T13:02:00.922Z,12.30
2023-01-23T13:04:36.523Z,10.80
2023-01-23T13:07:24.235Z,10.97
2023-01-23T13:10:48.391Z,10.83
2023-01-23T13:13:18.070Z,10.63
2023-01-23T13:16:02.027Z,11.27
2023-01-23T13:18:29.919Z,11.03
2023-01-23T13:21:17.834Z,10.90
2023-01-23T13:23:45.532Z,10.60
2023-01-23T13:26:12.196Z,12.20
2023-01-23T13:29:07.511Z,11.10
2023-01-23T13:31:40.265Z,11.27
2023-01-23T13:34:30.370Z,11.70
2023-01-23T13:37:28.870Z,11.70
2023-01-23T13:40:23.441Z,11.97
2023-01-23T13:42:50.377Z,11.77
2023-01-23T13:45:21.323Z,11.17
2023-01-23T14:22:11.275Z,16.33
2023-01-23T14:24:45.153Z,14.23
2023-01-23T14:27:51.385Z,14.57
2023-01-23T14:30:28.138Z,14.20
2023-01-23T14:32:56.264Z,16.13
2023-01-23T14:35:31.516Z,15.27
2023-01-23T14:38:00.953Z,15.27
2023-01-23T14:40:33.173Z,18.13
2023-01-23T14:43:12.369Z,18.97
2023-01-23T14:45:39.434Z,19.07
2023-01-23T14:48:13.613Z,14.17
2023-01-23T14:50:41.053Z,14.03
2023-01-23T14:53:14.194Z,13.63
2023-01-23T14:55:45.301Z,14.83
2023-01-23T14:58:22.868Z,15.03
2023-01-23T15:00:50.994Z,14.57
2023-01-23T15:03:43.811Z,15.57
2023-01-23T15:06:19.490Z,16.83
2023-01-23T15:08:57.679Z,15.40
2023-01-23T15:11:28.757Z,17.13
2023-01-23T15:14:01.526Z,14.27
2023-01-23T15:16:34.121Z,13.57
2023-01-23T15:19:18.205Z,14.20
2023-01-23T15:21:45.165Z,15.70
2023-01-23T15:24:12.231Z,13.43
2023-01-23T15:26:42.150Z,15.07
2023-01-23T15:29:09.058Z,14.30
2023-01-23T15:31:41.596Z,13.67
2023-01-23T15:34:18.329Z,14.60
2023-01-23T15:37:00.976Z,14.20
2023-01-23T15:39:31.804Z,12.13
2023-01-23T15:42:05.253Z,12.60
2023-01-23T15:44:33.021Z,12.77
2023-01-23T15:47:01.299Z,14.80
2023-01-23T15:49:29.048Z,13.33
2023-01-23T15:52:02.350Z,12.80
2023-01-23T15:54:33.866Z,13.70
2023-01-23T15:57:09.258Z,12.80
2023-01-23T15:59:37.440Z,11.37
2023-01-23T16:02:05.692Z,12.17
2023-01-23T16:04:33.063Z,12.80
2023-01-23T16:07:05.139Z,13.13
2023-01-23T16:09:35.613Z,11.63
2023-01-23T16:12:03.054Z,12.00
2023-01-23T16:14:29.984Z,12.70
2023-01-23T16:17:04.760Z,12.40
2023-01-23T16:19:38.630Z,12.00
2023-01-23T16:22:05.916Z,12.67
2023-01-23T16:24:39.433Z,11.40
2023-01-23T16:27:07.054Z,12.77
2023-01-23T16:29:35.171Z,11.80
2023-01-23T16:32:03.413Z,10.90
2023-01-23T16:34:30.350Z,12.60
2023-01-23T16:36:59.878Z,11.90
2023-01-23T16:39:31.641Z,11.83
2023-01-23T16:42:00.133Z,12.23
2023-01-23T16:44:28.981Z,12.83
2023-01-23T16:46:55.934Z,12.33
2023-01-23T16:49:23.069Z,13.00
2023-01-23T16:52:01.541Z,12.10
2023-01-23T16:54:28.613Z,14.63
2023-01-23T16:56:57.113Z,13.10
2023-01-23T16:59:39.071Z,18.90
2023-01-23T17:02:17.737Z,15.77
2023-01-23T17:04:44.864Z,17.00
2023-01-23T17:07:17.183Z,13.60
2023-01-23T17:09:45.329Z,13.30
2023-01-23T17:12:17.892Z,12.63
2023-01-23T17:14:46.054Z,12.90
2023-01-23T17:17:18.008Z,12.53
2023-01-23T17:19:45.917Z,14.17
2023-01-23T17:22:23.546Z,13.20
2023-01-23T17:24:50.436Z,13.00
2023-01-23T17:27:17.346Z,12.67
2023-01-23T17:29:44.347Z,12.00
2023-01-23T17:32:32.319Z,12.50
2023-01-23T17:35:02.898Z,14.20
2023-01-23T17:37:30.684Z,12.00
2023-01-23T17:39:57.678Z,12.50
2023-01-23T17:42:24.534Z,12.23
2023-01-23T17:44:51.425Z,14.37
2023-01-23T17:47:19.008Z,12.90
2023-01-23T17:49:51.606Z,11.50
2023-01-23T17:52:21.629Z,13.03
2023-01-23T17:54:49.243Z,12.27
2023-01-23T17:57:16.198Z,12.60
2023-01-23T17:59:43.468Z,11.77
2023-01-23T18:02:25.712Z,12.30
2023-01-23T18:04:52.660Z,13.70
2023-01-23T18:07:19.536Z,11.77
2023-01-23T18:09:46.693Z,12.77
2023-01-23T18:12:26.848Z,11.80
2023-01-23T18:15:03.975Z,15.43
2023-01-23T18:17:37.544Z,14.13
2023-01-23T18:20:20.622Z,12.93
2023-01-23T18:22:48.307Z,14.30
2023-01-23T18:25:16.906Z,13.70
2023-01-23T18:27:44.355Z,14.57
2023-01-23T18:30:18.732Z,14.93
2023-01-23T18:32:54.688Z,19.70
2023-01-23T18:35:30.959Z,13.67
2023-01-23T18:38:36.059Z,12.67
2023-01-23T18:41:24.344Z,15.90
2023-01-23T18:44:14.649Z,13.30
2023-01-23T18:46:41.730Z,13.30
2023-01-23T18:49:13.440Z,13.30
2023-01-23T18:51:56.774Z,14.03
2023-01-23T18:54:38.988Z,11.63
2023-01-23T18:57:30.818Z,11.53
2023-01-23T19:00:14.557Z,12.13
2023-01-23T19:02:55.255Z,12.03
2023-01-23T19:05:25.343Z,12.43
2023-01-23T19:07:52.438Z,13.60
2023-01-23T19:10:27.067Z,14.03
2023-01-23T19:13:18.386Z,12.83
2023-01-23T19:16:21.037Z,13.47
2023-01-23T19:18:53.210Z,14.90
2023-01-23T19:21:26.673Z,12.90
2023-01-23T19:24:04.220Z,17.20
2023-01-23T19:26:36.559Z,12.00
2023-01-23T19:29:19.841Z,14.33
2023-01-23T19:32:03.020Z,13.07
2023-01-23T19:34:31.675Z,14.17
2023-01-23T19:36:58.533Z,12.17
2023-01-23T19:39:25.326Z,12.50
2023-01-23T19:41:53.359Z,11.97
2023-01-23T19:44:24.365Z,14.60
2023-01-23T19:46:52.160Z,13.50
2023-01-23T19:49:19.150Z,11.90
2023-01-23T19:51:46.437Z,13.20
2023-01-23T19:54:14.864Z,12.97
2023-01-23T19:56:42.822Z,13.50
2023-01-23T19:59:09.928Z,14.33
2023-01-23T20:01:48.528Z,13.07
2023-01-23T20:04:17.047Z,13.93
2023-01-23T20:06:49.052Z,15.30
2023-01-23T20:09:17.486Z,11.70
2023-01-23T20:11:46.179Z,12.73
2023-01-23T20:14:13.463Z,12.20
2023-01-23T20:16:42.880Z,11.63
2023-01-23T20:19:15.369Z,12.43
2023-01-23T20:21:43.019Z,11.17
2023-01-23T20:24:10.709Z,12.20
2023-01-23T20:26:38.341Z,12.40
2023-01-23T20:29:05.918Z,12.73
2023-01-23T20:31:33.600Z,11.40
2023-01-23T20:34:00.476Z,13.40
2023-01-23T20:36:28.411Z,12.73
2023-01-23T20:38:56.557Z,12.73
2023-01-23T20:41:23.466Z,11.47
2023-01-23T20:43:50.738Z,12.87
2023-01-23T20:46:19.319Z,11.17
2023-01-23T20:48:46.702Z,11.67
2023-01-23T20:51:15.388Z,12.93
2023-01-23T20:53:42.666Z,12.27
2023-01-23T20:56:15.127Z,14.93
2023-01-23T20:59:05.662Z,18.43
2023-01-23T21:01:54.953Z,14.87
2023-01-23T21:04:23.102Z,15.17
2023-01-23T21:06:49.973Z,13.30
2023-01-23T21:09:17.092Z,14.93
2023-01-23T21:11:44.489Z,13.77
2023-01-23T21:14:12.712Z,15.37
2023-01-23T21:16:39.501Z,13.27
2023-01-23T21:19:06.345Z,14.73
2023-01-23T21:21:33.260Z,16.57
2023-01-23T21:24:00.151Z,14.30
2023-01-23T21:26:28.571Z,12.80
2023-01-23T21:28:57.043Z,13.73
2023-01-23T21:31:28.671Z,12.30
2023-01-23T21:33:56.458Z,13.80
2023-01-23T21:36:25.269Z,15.10
2023-01-23T21:38:53.253Z,13.37
2023-01-23T21:41:21.242Z,12.07
2023-01-23T21:43:48.325Z,11.17
2023-01-23T21:46:15.262Z,12.93
2023-01-23T21:48:42.255Z,12.57
2023-01-23T21:51:10.621Z,13.00
2023-01-23T21:53:39.317Z,14.03
2023-01-23T21:56:07.206Z,12.43
2023-01-23T21:58:34.685Z,14.73
2023-01-23T22:01:23.252Z,15.30
2023-01-23T22:03:50.787Z,14.33
2023-01-23T22:06:17.527Z,13.27
2023-01-23T22:08:44.484Z,14.60
2023-01-23T22:11:11.688Z,12.60
2023-01-23T22:13:38.840Z,14.50
2023-01-23T22:16:06.364Z,12.63
2023-01-23T22:18:34.010Z,13.33
2023-01-23T22:21:02.800Z,13.60
2023-01-23T22:23:30.677Z,12.47
2023-01-23T22:26:04.080Z,14.00
2023-01-23T22:28:30.839Z,13.30
2023-01-23T22:30:57.820Z,13.73
2023-01-23T22:33:30.096Z,12.83
2023-01-23T22:36:03.992Z,13.10
2023-01-23T22:38:30.981Z,13.77
2023-01-23T22:40:59.172Z,12.20
2023-01-23T22:43:26.727Z,12.70
2023-01-23T22:46:09.976Z,12.90
2023-01-23T22:48:37.052Z,12.80
2023-01-23T22:51:05.351Z,12.97
2023-01-23T22:53:32.418Z,12.03
2023-01-23T22:55:59.752Z,13.20
2023-01-23T22:58:26.592Z,13.40
2023-01-23T23:00:54.091Z,12.20
2023-01-23T23:03:22.418Z,13.57
2023-01-23T23:06:01.223Z,12.30
2023-01-23T23:08:29.300Z,13.13
2023-01-23T23:11:07.921Z,12.70
2023-01-23T23:13:36.428Z,13.00
2023-01-23T23:16:08.430Z,13.27
2023-01-23T23:18:38.211Z,13.50
2023-01-23T23:21:11.283Z,11.90
2023-01-23T23:23:38.709Z,12.37
2023-01-23T23:26:07.113Z,12.60
2023-01-23T23:28:35.114Z,13.53
2023-01-23T23:31:01.963Z,11.93
2023-01-23T23:33:28.969Z,12.97
2023-01-23T23:35:55.932Z,13.30
2023-01-23T23:38:23.245Z,15.10
2023-01-23T23:40:57.721Z,13.13
2023-01-23T23:43:24.689Z,12.47
2023-01-23T23:45:53.327Z,13.23
2023-01-23T23:48:20.853Z,13.17
2023-01-23T23:50:48.601Z,12.80
2023-01-23T23:53:16.054Z,12.93
2023-01-23T23:55:43.338Z,13.43
2023-01-23T23:58:10.494Z,12.57
